Time;durP1;ratioP1;P1;durP2;ratioP2;P2;SDS_P1;SDS_P2;PMS_P1;PMS_P2;Temp;Humidity;BMP_temperature;BMP_pressure;BME280_temperature;BME280_humidity;BME280_pressure;Samples;Min_cycle;Max_cycle;Signal;HPM_P1;HPM_P2
2023/11/24 00:00:36;;;;;;;71.53;32.03;;;;;;;;;;4373728;32;317664;-86
2023/11/24 00:03:03;;;;;;;56.60;32.33;;;;;;;;;;4379824;32;347765;-84
2023/11/24 00:05:31;;;;;;;65.97;32.93;;;;;;;;;;4368308;32;319516;-88
2023/11/24 00:07:58;;;;;;;74.37;37.53;;;;;;;;;;4376224;32;340757;-86
2023/11/24 00:10:28;;;;;;;61.80;35.40;;;;;;;;;;4374857;32;318680;-87
2023/11/24 00:12:56;;;;;;;73.13;36.97;;;;;;;;;;4353840;32;419872;-86
2023/11/24 00:15:23;;;;;;;64.73;35.97;;;;;;;;;;4367028;32;322462;-86
2023/11/24 00:17:50;;;;;;;59.30;33.10;;;;;;;;;;4355535;32;329000;-86
2023/11/24 00:20:17;;;;;;;62.00;32.30;;;;;;;;;;4367176;32;319689;-82
2023/11/24 00:22:45;;;;;;;59.13;32.10;;;;;;;;;;4354681;32;319876;-84
2023/11/24 00:25:12;;;;;;;61.67;33.17;;;;;;;;;;4366577;32;318630;-86
2023/11/24 00:27:39;;;;;;;50.67;30.70;;;;;;;;;;4356515;32;345850;-87
2023/11/24 00:30:07;;;;;;;53.87;30.73;;;;;;;;;;4357637;32;319796;-85
2023/11/24 00:32:34;;;;;;;56.13;33.37;;;;;;;;;;4357343;32;320000;-83
2023/11/24 00:35:01;;;;;;;73.00;44.23;;;;;;;;;;4362623;32;338550;-85
2023/11/24 00:37:28;;;;;;;61.57;35.80;;;;;;;;;;4339231;32;353531;-85
2023/11/24 00:39:57;;;;;;;61.07;35.83;;;;;;;;;;4364363;32;319620;-85
2023/11/24 00:42:24;;;;;;;59.60;33.77;;;;;;;;;;4364692;32;319532;-84
2023/11/24 00:44:51;;;;;;;70.93;38.60;;;;;;;;;;4352361;32;418052;-85
2023/11/24 00:47:18;;;;;;;64.20;34.43;;;;;;;;;;4365151;32;319961;-87
2023/11/24 00:49:47;;;;;;;58.23;34.60;;;;;;;;;;4355465;32;319576;-86
2023/11/24 00:52:14;;;;;;;52.30;32.40;;;;;;;;;;4367002;32;319765;-87
2023/11/24 00:54:41;;;;;;;54.37;32.53;;;;;;;;;;4355649;32;339718;-85
2023/11/24 00:57:09;;;;;;;50.37;31.43;;;;;;;;;;4362741;32;319924;-86
2023/11/24 00:59:36;;;;;;;47.60;27.97;;;;;;;;;;4357414;32;319295;-86
2023/11/24 01:02:03;;;;;;;46.00;28.40;;;;;;;;;;4367533;32;319597;-89
2023/11/24 01:04:30;;;;;;;60.23;28.40;;;;;;;;;;4362606;32;319679;-88
2023/11/24 01:06:57;;;;;;;46.27;26.30;;;;;;;;;;4368955;32;319308;-88
2023/11/24 01:09:24;;;;;;;40.60;24.20;;;;;;;;;;4369135;32;319026;-86
2023/11/24 01:11:50;;;;;;;42.43;26.50;;;;;;;;;;4355074;32;419521;-86
2023/11/24 01:14:19;;;;;;;40.37;26.10;;;;;;;;;;4368303;32;348185;-86
2023/11/24 01:16:45;;;;;;;48.33;28.13;;;;;;;;;;4357722;32;319738;-86
2023/11/24 01:19:14;;;;;;;42.87;26.70;;;;;;;;;;4368521;32;343715;-86
2023/11/24 01:21:41;;;;;;;48.53;29.97;;;;;;;;;;4351291;32;319156;-88
2023/11/24 01:24:08;;;;;;;47.00;28.67;;;;;;;;;;4369744;32;319918;-87
2023/11/24 01:26:37;;;;;;;44.80;26.47;;;;;;;;;;4359878;32;319557;-86
2023/11/24 01:29:05;;;;;;;42.13;26.73;;;;;;;;;;4369995;32;319048;-86
2023/11/24 01:31:34;;;;;;;37.20;25.93;;;;;;;;;;4358370;32;339232;-85
2023/11/24 01:33:59;;;;;;;35.07;24.30;;;;;;;;;;4367625;32;319801;-86
2023/11/24 01:36:26;;;;;;;38.67;24.97;;;;;;;;;;4352976;32;325116;-86
2023/11/24 01:38:54;;;;;;;35.67;24.43;;;;;;;;;;4369163;32;318842;-86
2023/11/24 01:41:21;;;;;;;42.40;24.43;;;;;;;;;;4359446;32;320117;-85
2023/11/24 01:43:59;;;;;;;39.20;24.20;;;;;;;;;;4369340;32;319560;-86
2023/11/24 01:46:26;;;;;;;40.00;23.57;;;;;;;;;;4357845;32;344555;-88
2023/11/24 01:48:55;;;;;;;40.90;25.43;;;;;;;;;;4368252;32;319191;-86
2023/11/24 01:51:23;;;;;;;39.50;25.20;;;;;;;;;;4358806;32;329084;-86
2023/11/24 01:53:51;;;;;;;32.77;22.03;;;;;;;;;;4369303;32;318804;-86
2023/11/24 01:56:19;;;;;;;35.20;22.90;;;;;;;;;;4358949;32;318946;-87
2023/11/24 01:58:46;;;;;;;41.60;25.37;;;;;;;;;;4369567;32;319584;-87
2023/11/24 02:01:13;;;;;;;37.47;25.33;;;;;;;;;;4358183;32;345114;-87
2023/11/24 02:03:41;;;;;;;40.77;26.17;;;;;;;;;;4369153;32;319362;-86
2023/11/24 02:06:11;;;;;;;42.40;24.97;;;;;;;;;;4355821;32;343333;-86
2023/11/24 02:08:38;;;;;;;44.07;25.73;;;;;;;;;;4368236;32;319386;-86
2023/11/24 02:11:05;;;;;;;41.37;26.33;;;;;;;;;;4357880;32;319488;-86
2023/11/24 02:13:32;;;;;;;40.53;25.83;;;;;;;;;;4369507;32;319570;-86
2023/11/24 02:15:59;;;;;;;39.70;24.53;;;;;;;;;;4367641;32;319006;-89
2023/11/24 02:18:26;;;;;;;42.70;24.27;;;;;;;;;;4357112;32;342749;-87
2023/11/24 02:20:52;;;;;;;44.30;25.17;;;;;;;;;;4369086;32;318872;-87
2023/11/24 02:23:21;;;;;;;42.50;26.23;;;;;;;;;;4358819;32;319475;-87
2023/11/24 02:25:48;;;;;;;43.00;26.87;;;;;;;;;;4367801;32;319552;-86
2023/11/24 02:28:15;;;;;;;42.77;26.47;;;;;;;;;;4357749;32;319411;-87
2023/11/24 02:30:41;;;;;;;43.90;24.30;;;;;;;;;;4368988;32;319680;-86
2023/11/24 02:33:09;;;;;;;42.83;26.27;;;;;;;;;;4358720;32;319522;-86
2023/11/24 02:35:37;;;;;;;40.60;24.33;;;;;;;;;;4367794;32;326529;-85
2023/11/24 02:38:04;;;;;;;41.93;26.83;;;;;;;;;;4359161;32;319309;-89
2023/11/24 02:40:33;;;;;;;50.20;28.47;;;;;;;;;;4368772;32;318895;-88
2023/11/24 02:43:00;;;;;;;52.17;27.67;;;;;;;;;;4368893;32;319661;-87
2023/11/24 02:45:27;;;;;;;58.50;29.03;;;;;;;;;;4357552;32;319616;-87
2023/11/24 02:47:54;;;;;;;50.13;29.10;;;;;;;;;;4367624;32;319450;-87
2023/11/24 02:50:22;;;;;;;46.80;28.27;;;;;;;;;;4358642;32;318826;-87
2023/11/24 02:52:49;;;;;;;46.53;28.27;;;;;;;;;;4367510;32;320741;-88
2023/11/24 02:55:18;;;;;;;51.70;26.50;;;;;;;;;;4357150;32;319336;-88
2023/11/24 02:57:48;;;;;;;48.30;27.80;;;;;;;;;;4366632;32;340071;-87
2023/11/24 03:00:17;;;;;;;48.63;28.77;;;;;;;;;;4355809;32;329581;-87
2023/11/24 03:02:45;;;;;;;44.33;27.53;;;;;;;;;;4368141;32;319265;-86
2023/11/24 03:05:13;;;;;;;44.60;27.77;;;;;;;;;;4358483;32;319462;-86
2023/11/24 03:07:40;;;;;;;47.63;28.87;;;;;;;;;;4368470;32;318938;-86
2023/11/24 03:10:08;;;;;;;49.90;27.60;;;;;;;;;;4357322;32;319347;-86
2023/11/24 03:12:35;;;;;;;50.83;28.73;;;;;;;;;;4366960;32;319346;-86
2023/11/24 03:15:04;;;;;;;48.63;31.00;;;;;;;;;;4367855;32;319435;-87
2023/11/24 03:17:31;;;;;;;52.97;30.47;;;;;;;;;;4356323;32;418435;-87
2023/11/24 03:19:58;;;;;;;47.60;29.87;;;;;;;;;;4367607;32;318906;-86
2023/11/24 03:22:24;;;;;;;50.07;29.33;;;;;;;;;;4358707;32;319223;-86
2023/11/24 03:24:51;;;;;;;47.40;28.73;;;;;;;;;;4368076;32;319438;-86
2023/11/24 03:27:18;;;;;;;55.20;29.77;;;;;;;;;;4356661;32;318653;-89
2023/11/24 03:29:45;;;;;;;59.63;34.53;;;;;;;;;;4366476;32;319694;-86
2023/11/24 03:32:13;;;;;;;63.73;30.87;;;;;;;;;;4357199;32;318569;-88
2023/11/24 03:34:40;;;;;;;73.60;33.20;;;;;;;;;;4366901;32;319506;-86
2023/11/24 03:37:07;;;;;;;60.40;29.27;;;;;;;;;;4357167;32;318761;-86
2023/11/24 03:39:34;;;;;;;63.00;29.50;;;;;;;;;;4368222;32;319442;-86
2023/11/24 03:42:01;;;;;;;68.47;29.83;;;;;;;;;;4367215;32;318899;-87
2023/11/24 03:44:28;;;;;;;70.53;31.77;;;;;;;;;;4353949;32;420857;-86
2023/11/24 03:46:55;;;;;;;80.03;35.00;;;;;;;;;;4367293;32;338408;-86
2023/11/24 03:49:23;;;;;;;87.40;36.10;;;;;;;;;;4357634;32;319389;-86
2023/11/24 03:51:50;;;;;;;69.40;33.57;;;;;;;;;;4367942;32;319652;-86
2023/11/24 03:54:21;;;;;;;84.23;32.33;;;;;;;;;;4357953;32;319579;-86
2023/11/24 03:56:48;;;;;;;76.57;33.03;;;;;;;;;;4368657;32;319580;-86
2023/11/24 03:59:15;;;;;;;64.23;30.13;;;;;;;;;;4372140;32;318728;-87
2023/11/24 04:01:41;;;;;;;61.30;28.83;;;;;;;;;;4384788;32;318955;-86
2023/11/24 04:04:08;;;;;;;66.00;29.67;;;;;;;;;;4363824;32;319286;-86
2023/11/24 04:06:37;;;;;;;79.57;33.37;;;;;;;;;;4380215;32;317907;-86
2023/11/24 04:09:04;;;;;;;74.77;35.73;;;;;;;;;;4362887;32;319493;-87
2023/11/24 04:11:31;;;;;;;93.40;38.77;;;;;;;;;;4366864;32;318673;-86
2023/11/24 04:13:58;;;;;;;97.13;39.73;;;;;;;;;;4366928;32;319440;-86
2023/11/24 04:16:26;;;;;;;82.87;37.97;;;;;;;;;;4357602;32;318930;-86
2023/11/24 04:18:52;;;;;;;86.20;40.17;;;;;;;;;;4367117;32;319321;-86
2023/11/24 04:21:19;;;;;;;85.90;39.00;;;;;;;;;;4356351;32;319522;-87
2023/11/24 04:23:47;;;;;;;91.00;36.23;;;;;;;;;;4366352;32;319732;-86
2023/11/24 04:26:14;;;;;;;91.67;39.17;;;;;;;;;;4360787;32;318615;-87
2023/11/24 04:28:41;;;;;;;84.63;37.67;;;;;;;;;;4368396;32;319410;-86
2023/11/24 04:31:08;;;;;;;79.53;37.43;;;;;;;;;;4357178;32;318932;-86
2023/11/24 04:33:34;;;;;;;90.53;38.70;;;;;;;;;;4367533;32;319381;-87
2023/11/24 04:36:01;;;;;;;80.10;34.90;;;;;;;;;;4367403;32;319481;-86
2023/11/24 04:38:29;;;;;;;84.03;38.53;;;;;;;;;;4352482;32;420093;-86
2023/11/24 04:40:57;;;;;;;89.90;39.03;;;;;;;;;;4367150;32;319243;-86
2023/11/24 04:43:26;;;;;;;90.67;40.80;;;;;;;;;;4354879;32;343393;-86
2023/11/24 04:45:53;;;;;;;84.83;39.37;;;;;;;;;;4367002;32;324708;-87
2023/11/24 04:48:19;;;;;;;86.40;38.60;;;;;;;;;;4356954;32;319574;-87
2023/11/24 04:50:46;;;;;;;89.70;40.93;;;;;;;;;;4367392;32;319404;-87
2023/11/24 04:53:13;;;;;;;81.67;37.97;;;;;;;;;;4356392;32;319234;-86
2023/11/24 04:55:40;;;;;;;81.67;38.20;;;;;;;;;;4365811;32;318902;-89
2023/11/24 04:58:09;;;;;;;82.63;39.67;;;;;;;;;;4356015;32;319366;-86
2023/11/24 05:00:36;;;;;;;94.20;42.80;;;;;;;;;;4366437;32;340949;-87
2023/11/24 05:03:03;;;;;;;91.50;41.10;;;;;;;;;;4366995;32;319484;-86
2023/11/24 05:05:29;;;;;;;91.40;43.47;;;;;;;;;;4354402;32;420365;-85
2023/11/24 05:07:56;;;;;;;98.90;43.90;;;;;;;;;;4366186;32;319286;-86
2023/11/24 05:10:23;;;;;;;97.50;44.73;;;;;;;;;;4355351;32;324647;-86
2023/11/24 05:12:50;;;;;;;117.77;49.20;;;;;;;;;;4366949;32;319528;-87
2023/11/24 05:15:19;;;;;;;118.67;56.63;;;;;;;;;;4356518;32;319750;-85
2023/11/24 05:17:45;;;;;;;126.00;57.77;;;;;;;;;;4366373;32;319969;-85
2023/11/24 05:20:14;;;;;;;128.10;55.33;;;;;;;;;;4357609;32;320485;-86
2023/11/24 05:22:41;;;;;;;109.23;50.93;;;;;;;;;;4365750;32;320316;-86
2023/11/24 05:25:09;;;;;;;106.43;49.70;;;;;;;;;;4353126;32;356472;-86
2023/11/24 05:27:36;;;;;;;97.37;46.90;;;;;;;;;;4366639;32;320586;-86
2023/11/24 05:30:06;;;;;;;107.60;49.80;;;;;;;;;;4366553;32;318637;-86
2023/11/24 05:32:35;;;;;;;99.30;48.67;;;;;;;;;;4353326;32;419573;-87
2023/11/24 05:35:03;;;;;;;107.90;52.50;;;;;;;;;;4367028;32;319420;-87
2023/11/24 05:37:30;;;;;;;112.83;54.27;;;;;;;;;;4353824;32;420887;-86
2023/11/24 05:39:56;;;;;;;108.37;54.00;;;;;;;;;;4366671;32;319832;-88
2023/11/24 05:42:23;;;;;;;130.97;63.20;;;;;;;;;;4356409;32;321034;-87
2023/11/24 05:44:50;;;;;;;124.27;61.13;;;;;;;;;;4365238;32;320477;-86
2023/11/24 05:47:17;;;;;;;121.63;52.63;;;;;;;;;;4354154;32;340051;-85
2023/11/24 05:49:46;;;;;;;97.43;48.17;;;;;;;;;;4368494;32;319811;-86
2023/11/24 05:52:15;;;;;;;105.97;51.20;;;;;;;;;;4337219;32;319623;-88
2023/11/24 05:54:42;;;;;;;98.67;50.77;;;;;;;;;;4369130;32;320437;-86
2023/11/24 05:57:09;;;;;;;109.17;51.33;;;;;;;;;;4357600;32;326636;-87
2023/11/24 05:59:36;;;;;;;116.87;50.50;;;;;;;;;;4382802;32;320369;-87
2023/11/24 06:02:04;;;;;;;96.73;48.43;;;;;;;;;;4382962;32;354423;-87
2023/11/24 06:04:31;;;;;;;120.67;57.20;;;;;;;;;;4371403;32;418779;-85
2023/11/24 06:06:59;;;;;;;140.33;64.77;;;;;;;;;;4384081;32;319856;-86
2023/11/24 06:09:26;;;;;;;159.83;68.53;;;;;;;;;;4372549;32;322668;-85
2023/11/24 06:11:53;;;;;;;173.10;70.70;;;;;;;;;;4384140;32;320476;-86
2023/11/24 06:14:19;;;;;;;156.57;67.33;;;;;;;;;;4373554;32;320278;-86
2023/11/24 06:16:46;;;;;;;174.60;66.80;;;;;;;;;;4378352;32;320463;-86
2023/11/24 06:19:13;;;;;;;164.60;62.23;;;;;;;;;;4357574;32;319759;-86
2023/11/24 06:21:40;;;;;;;131.97;53.83;;;;;;;;;;4368030;32;321942;-86
2023/11/24 06:24:09;;;;;;;133.40;51.07;;;;;;;;;;4358844;32;320454;-88
2023/11/24 06:26:37;;;;;;;109.87;46.57;;;;;;;;;;4368764;32;319914;-86
2023/11/24 06:29:05;;;;;;;107.43;42.43;;;;;;;;;;4344082;32;354390;-86
2023/11/24 06:31:32;;;;;;;113.93;45.40;;;;;;;;;;4365420;32;320256;-86
2023/11/24 06:33:59;;;;;;;100.70;43.27;;;;;;;;;;4368669;32;320916;-86
2023/11/24 06:36:26;;;;;;;96.80;42.23;;;;;;;;;;4357915;32;320269;-87
2023/11/24 06:38:53;;;;;;;110.97;44.67;;;;;;;;;;4366777;32;349218;-86
2023/11/24 06:41:21;;;;;;;108.20;44.53;;;;;;;;;;4358225;32;320502;-88
2023/11/24 06:43:48;;;;;;;106.23;44.67;;;;;;;;;;4356091;32;320375;-86
2023/11/24 06:46:15;;;;;;;113.90;46.83;;;;;;;;;;4340663;32;361020;-88
2023/11/24 06:48:42;;;;;;;109.43;49.70;;;;;;;;;;4345585;32;319672;-88
2023/11/24 06:51:09;;;;;;;122.10;45.97;;;;;;;;;;4342613;32;320727;-86
2023/11/24 06:53:35;;;;;;;109.13;46.43;;;;;;;;;;4353606;32;320190;-85
2023/11/24 06:56:02;;;;;;;119.33;45.93;;;;;;;;;;4354041;32;320096;-86
2023/11/24 06:58:30;;;;;;;107.63;46.43;;;;;;;;;;4352504;32;421115;-86
2023/11/24 07:00:57;;;;;;;124.90;48.90;;;;;;;;;;4364532;32;319869;-86
2023/11/24 07:03:25;;;;;;;128.23;51.37;;;;;;;;;;4350239;32;319967;-86
2023/11/24 07:05:52;;;;;;;117.40;50.20;;;;;;;;;;4376309;32;320588;-84
2023/11/24 07:08:18;;;;;;;103.10;46.27;;;;;;;;;;4352839;32;320426;-84
2023/11/24 07:10:45;;;;;;;91.97;41.67;;;;;;;;;;4365359;32;320442;-85
2023/11/24 07:13:12;;;;;;;86.87;41.03;;;;;;;;;;4356615;32;319525;-84
2023/11/24 07:15:40;;;;;;;84.43;38.53;;;;;;;;;;4365166;32;324889;-84
2023/11/24 07:18:07;;;;;;;103.10;42.03;;;;;;;;;;4354907;32;319258;-86
2023/11/24 07:20:34;;;;;;;94.27;42.23;;;;;;;;;;4366620;32;320621;-85
2023/11/24 07:23:01;;;;;;;79.97;37.53;;;;;;;;;;4366546;32;319209;-84
2023/11/24 07:25:28;;;;;;;65.23;30.73;;;;;;;;;;4345754;32;318896;-83
2023/11/24 07:27:56;;;;;;;67.00;32.43;;;;;;;;;;4363600;32;319382;-86
2023/11/24 07:30:25;;;;;;;73.37;33.70;;;;;;;;;;4355240;32;319098;-87
2023/11/24 07:32:53;;;;;;;71.17;33.73;;;;;;;;;;4366762;32;318619;-86
2023/11/24 07:35:20;;;;;;;71.23;30.40;;;;;;;;;;4353362;32;318652;-87
2023/11/24 07:37:47;;;;;;;63.03;31.53;;;;;;;;;;4367835;32;319262;-88
2023/11/24 07:40:14;;;;;;;65.23;32.63;;;;;;;;;;4356598;32;319565;-86
2023/11/24 07:42:43;;;;;;;72.17;39.00;;;;;;;;;;4366888;32;319208;-86
2023/11/24 07:45:11;;;;;;;161.73;74.00;;;;;;;;;;4357968;32;319446;-90
2023/11/24 07:47:39;;;;;;;94.20;44.90;;;;;;;;;;4368044;32;320548;-88
2023/11/24 07:50:09;;;;;;;91.90;44.67;;;;;;;;;;4357269;32;319115;-87
2023/11/24 07:52:35;;;;;;;88.53;44.20;;;;;;;;;;4366735;32;318788;-87
2023/11/24 07:55:05;;;;;;;81.03;43.97;;;;;;;;;;4368027;32;319119;-87
2023/11/24 07:57:32;;;;;;;81.93;41.57;;;;;;;;;;4361550;32;419428;-87
2023/11/24 08:00:00;;;;;;;92.10;41.67;;;;;;;;;;4378298;32;318889;-85
2023/11/24 08:02:27;;;;;;;82.80;43.97;;;;;;;;;;4371127;32;319245;-85
2023/11/24 08:04:54;;;;;;;71.70;39.70;;;;;;;;;;4377861;32;318755;-86
2023/11/24 08:07:23;;;;;;;75.83;39.67;;;;;;;;;;4367207;32;318787;-87
2023/11/24 08:09:54;;;;;;;73.77;36.93;;;;;;;;;;4367805;32;356377;-87
2023/11/24 08:12:20;;;;;;;69.60;38.17;;;;;;;;;;4356723;32;319442;-87
2023/11/24 08:14:47;;;;;;;65.73;35.43;;;;;;;;;;4366296;32;319186;-88
2023/11/24 08:17:14;;;;;;;53.87;31.60;;;;;;;;;;4347713;32;318712;-86
2023/11/24 08:19:41;;;;;;;58.80;36.00;;;;;;;;;;4368349;32;318753;-86
2023/11/24 08:22:08;;;;;;;49.93;31.53;;;;;;;;;;4356426;32;319454;-87
2023/11/24 08:24:36;;;;;;;45.80;29.37;;;;;;;;;;4367571;32;319277;-87
2023/11/24 08:27:04;;;;;;;56.70;33.37;;;;;;;;;;4363727;32;319402;-87
2023/11/24 08:29:31;;;;;;;54.77;31.33;;;;;;;;;;4343921;32;420001;-88
2023/11/24 08:31:59;;;;;;;55.23;30.17;;;;;;;;;;4359307;32;319449;-87
2023/11/24 08:34:26;;;;;;;60.37;33.80;;;;;;;;;;4347932;32;319447;-90
2023/11/24 08:36:53;;;;;;;67.70;37.13;;;;;;;;;;4375011;32;319357;-86
2023/11/24 08:39:21;;;;;;;70.40;39.57;;;;;;;;;;4344573;32;319186;-87
2023/11/24 08:41:52;;;;;;;79.97;38.77;;;;;;;;;;4365648;32;319330;-87
2023/11/24 08:44:24;;;;;;;74.10;38.93;;;;;;;;;;4356322;32;319383;-89
2023/11/24 08:46:51;;;;;;;66.27;38.40;;;;;;;;;;4366466;32;319732;-87
2023/11/24 08:49:18;;;;;;;56.67;35.33;;;;;;;;;;4355026;32;318859;-86
2023/11/24 08:51:45;;;;;;;63.47;33.47;;;;;;;;;;4365450;32;319458;-86
2023/11/24 08:54:13;;;;;;;59.07;33.47;;;;;;;;;;4355725;32;319252;-85
2023/11/24 08:56:40;;;;;;;64.00;36.00;;;;;;;;;;4366813;32;319696;-87
2023/11/24 08:59:10;;;;;;;61.00;32.67;;;;;;;;;;4356931;32;319458;-87
2023/11/24 09:01:37;;;;;;;52.53;32.57;;;;;;;;;;4368561;32;318839;-87
2023/11/24 09:04:04;;;;;;;53.57;30.40;;;;;;;;;;4358747;32;355049;-87
2023/11/24 09:06:32;;;;;;;48.67;28.63;;;;;;;;;;4364455;32;319557;-87
2023/11/24 09:09:00;;;;;;;43.23;29.07;;;;;;;;;;4362949;32;318971;-87
2023/11/24 09:11:26;;;;;;;47.13;27.93;;;;;;;;;;4354725;32;319469;-86
2023/11/24 09:13:54;;;;;;;39.73;23.83;;;;;;;;;;4357752;32;319472;-84
2023/11/24 09:16:22;;;;;;;44.70;24.97;;;;;;;;;;4348932;32;318896;-84
2023/11/24 09:18:49;;;;;;;45.53;26.10;;;;;;;;;;4354906;32;320014;-86
2023/11/24 09:21:17;;;;;;;47.80;26.97;;;;;;;;;;4346544;32;318787;-84
2023/11/24 09:23:44;;;;;;;40.03;25.70;;;;;;;;;;4362207;32;319123;-84
2023/11/24 09:26:11;;;;;;;37.80;23.97;;;;;;;;;;4365671;32;318956;-84
2023/11/24 09:28:39;;;;;;;52.63;29.77;;;;;;;;;;4355617;32;319371;-85
2023/11/24 09:31:08;;;;;;;45.00;26.83;;;;;;;;;;4351740;32;318722;-83
2023/11/24 09:33:38;;;;;;;45.07;25.17;;;;;;;;;;4367207;32;327372;-85
2023/11/24 09:36:06;;;;;;;41.73;26.17;;;;;;;;;;4356064;32;319518;-83
2023/11/24 09:38:33;;;;;;;49.97;29.20;;;;;;;;;;4367589;32;319506;-85
2023/11/24 09:41:05;;;;;;;39.57;25.97;;;;;;;;;;4367189;32;321789;-87
2023/11/24 09:43:32;;;;;;;42.30;25.63;;;;;;;;;;4353426;32;419491;-87
2023/11/24 09:45:59;;;;;;;46.20;26.20;;;;;;;;;;4367701;32;318904;-85
2023/11/24 09:48:29;;;;;;;57.13;32.07;;;;;;;;;;4358427;32;319247;-87
2023/11/24 09:51:02;;;;;;;51.17;31.57;;;;;;;;;;4348103;32;318526;-84
2023/11/24 09:53:33;;;;;;;50.80;30.30;;;;;;;;;;4361694;32;419902;-85
2023/11/24 09:56:00;;;;;;;45.60;28.53;;;;;;;;;;4371408;32;319182;-87
2023/11/24 09:58:27;;;;;;;48.10;30.97;;;;;;;;;;4358561;32;319043;-87
2023/11/24 10:00:59;;;;;;;42.47;27.03;;;;;;;;;;4367687;32;318733;-86
2023/11/24 10:03:27;;;;;;;44.33;25.50;;;;;;;;;;4343855;32;319328;-85
2023/11/24 10:05:54;;;;;;;50.30;29.30;;;;;;;;;;4367621;32;318425;-84
2023/11/24 10:08:23;;;;;;;49.80;29.53;;;;;;;;;;4357851;32;319577;-83
2023/11/24 10:10:50;;;;;;;48.53;28.33;;;;;;;;;;4369310;32;319296;-83
2023/11/24 10:13:17;;;;;;;43.40;25.70;;;;;;;;;;4355496;32;319572;-84
2023/11/24 10:15:44;;;;;;;41.33;25.43;;;;;;;;;;4368244;32;319489;-81
2023/11/24 10:18:11;;;;;;;35.30;25.13;;;;;;;;;;4355758;32;319717;-84
2023/11/24 10:20:38;;;;;;;42.77;25.00;;;;;;;;;;4367116;32;319417;-84
2023/11/24 10:23:05;;;;;;;36.97;24.47;;;;;;;;;;4358544;32;318943;-86
2023/11/24 10:25:34;;;;;;;44.13;28.60;;;;;;;;;;4368864;32;319348;-84
2023/11/24 10:28:05;;;;;;;39.33;25.67;;;;;;;;;;4366476;32;351080;-84
2023/11/24 10:30:33;;;;;;;42.63;26.47;;;;;;;;;;4355239;32;418986;-83
2023/11/24 10:33:02;;;;;;;41.80;26.77;;;;;;;;;;4368416;32;318838;-84
2023/11/24 10:35:29;;;;;;;54.10;32.23;;;;;;;;;;4352307;32;419736;-84
2023/11/24 10:37:58;;;;;;;37.63;26.03;;;;;;;;;;4366774;32;319391;-88
2023/11/24 10:40:26;;;;;;;34.47;22.53;;;;;;;;;;4358247;32;318990;-84
2023/11/24 10:42:55;;;;;;;43.10;23.23;;;;;;;;;;4367685;32;319298;-84
2023/11/24 10:45:23;;;;;;;37.50;24.07;;;;;;;;;;4357937;32;322713;-90
2023/11/24 10:48:09;;;;;;;42.57;26.53;;;;;;;;;;4367740;32;319116;-84
2023/11/24 10:50:39;;;;;;;34.33;23.37;;;;;;;;;;4370002;32;418618;-84
2023/11/24 10:53:11;;;;;;;40.43;23.13;;;;;;;;;;4370014;32;319044;-84
2023/11/24 10:55:40;;;;;;;37.90;24.40;;;;;;;;;;4381789;32;319624;-84
2023/11/24 10:58:10;;;;;;;38.43;24.80;;;;;;;;;;4356681;32;320108;-84
2023/11/24 11:00:38;;;;;;;31.83;23.20;;;;;;;;;;4367353;32;329921;-84
2023/11/24 11:03:06;;;;;;;42.73;23.50;;;;;;;;;;4357602;32;319823;-84
2023/11/24 11:05:44;;;;;;;38.87;24.30;;;;;;;;;;4366376;32;319047;-84
2023/11/24 11:08:18;;;;;;;38.73;23.87;;;;;;;;;;4356313;32;319405;-84
2023/11/24 11:10:56;;;;;;;38.50;27.00;;;;;;;;;;4366353;32;319506;-84
2023/11/24 11:13:26;;;;;;;42.53;26.43;;;;;;;;;;4357008;32;319304;-84
2023/11/24 11:15:55;;;;;;;44.53;30.13;;;;;;;;;;4366320;32;344106;-83
2023/11/24 11:18:26;;;;;;;49.13;33.27;;;;;;;;;;4355876;32;319933;-84
2023/11/24 11:20:54;;;;;;;52.63;34.60;;;;;;;;;;4366324;32;319457;-84
2023/11/24 11:23:22;;;;;;;42.53;30.27;;;;;;;;;;4356034;32;319467;-84
2023/11/24 11:25:51;;;;;;;46.60;30.10;;;;;;;;;;4367857;32;319257;-84
2023/11/24 11:28:42;;;;;;;33.83;22.07;;;;;;;;;;4357481;32;318808;-84
2023/11/24 11:31:32;;;;;;;33.13;21.00;;;;;;;;;;4351008;32;319527;-84
2023/11/24 11:34:12;;;;;;;33.67;21.07;;;;;;;;;;4365479;32;319728;-82
2023/11/24 11:36:49;;;;;;;28.43;20.20;;;;;;;;;;4352315;32;419043;-84
2023/11/24 11:39:20;;;;;;;30.60;17.73;;;;;;;;;;4347134;32;319597;-84
2023/11/24 11:41:51;;;;;;;23.53;17.30;;;;;;;;;;4364649;32;319793;-84
2023/11/24 11:44:33;;;;;;;21.67;14.67;;;;;;;;;;4355075;32;319085;-84
2023/11/24 11:47:15;;;;;;;20.43;15.13;;;;;;;;;;4363722;32;319452;-84
2023/11/24 11:49:42;;;;;;;22.57;16.47;;;;;;;;;;4351604;32;419617;-83
2023/11/24 11:52:11;;;;;;;26.10;18.30;;;;;;;;;;4356000;32;319604;-84
2023/11/24 11:54:39;;;;;;;25.80;17.30;;;;;;;;;;4367903;32;319276;-84
2023/11/24 11:57:07;;;;;;;25.50;18.90;;;;;;;;;;4359317;32;318976;-84
2023/11/24 11:59:36;;;;;;;23.03;15.73;;;;;;;;;;4382013;32;317900;-84
2023/11/24 12:02:05;;;;;;;27.80;15.43;;;;;;;;;;4382388;32;319153;-83
2023/11/24 12:04:33;;;;;;;24.43;15.10;;;;;;;;;;4362672;32;417654;-84
2023/11/24 12:07:01;;;;;;;19.17;15.13;;;;;;;;;;4373281;32;319426;-84
2023/11/24 12:09:28;;;;;;;21.80;13.43;;;;;;;;;;4358387;32;352502;-83
2023/11/24 12:11:56;;;;;;;19.37;12.60;;;;;;;;;;4367446;32;319637;-84
2023/11/24 12:14:24;;;;;;;18.23;12.87;;;;;;;;;;4356134;32;319539;-84
2023/11/24 12:16:54;;;;;;;18.37;12.73;;;;;;;;;;4365099;32;345452;-84
2023/11/24 12:19:22;;;;;;;27.83;14.87;;;;;;;;;;4356196;32;318726;-83
2023/11/24 12:21:50;;;;;;;18.57;13.77;;;;;;;;;;4365921;32;319640;-84
2023/11/24 12:24:17;;;;;;;20.27;14.90;;;;;;;;;;4342248;32;319427;-84
2023/11/24 12:26:45;;;;;;;23.03;14.50;;;;;;;;;;4366300;32;318816;-82
2023/11/24 12:29:13;;;;;;;20.83;16.33;;;;;;;;;;4354041;32;319872;-82
2023/11/24 12:31:41;;;;;;;25.87;16.13;;;;;;;;;;4362528;32;351015;-82
2023/11/24 12:34:28;;;;;;;28.13;16.90;;;;;;;;;;4352377;32;319317;-84
2023/11/24 12:36:55;;;;;;;23.47;14.80;;;;;;;;;;4363725;32;338151;-81
2023/11/24 12:39:24;;;;;;;21.57;14.67;;;;;;;;;;4352080;32;320122;-85
2023/11/24 12:41:55;;;;;;;23.23;16.13;;;;;;;;;;4365540;32;319495;-88
2023/11/24 12:44:25;;;;;;;23.27;16.80;;;;;;;;;;4354549;32;319305;-83
2023/11/24 12:47:07;;;;;;;23.43;17.40;;;;;;;;;;4359792;32;319534;-83
2023/11/24 12:49:53;;;;;;;24.50;16.10;;;;;;;;;;4353267;32;419779;-81
2023/11/24 12:52:20;;;;;;;39.17;20.13;;;;;;;;;;4339257;32;319483;-85
2023/11/24 12:54:47;;;;;;;39.47;20.90;;;;;;;;;;4350955;32;319857;-87
2023/11/24 12:57:14;;;;;;;42.33;25.73;;;;;;;;;;4351412;32;327120;-85
2023/11/24 12:59:40;;;;;;;62.53;42.73;;;;;;;;;;4363813;32;328049;-84
2023/11/24 13:02:09;;;;;;;40.03;26.73;;;;;;;;;;4354154;32;319373;-83
2023/11/24 13:04:38;;;;;;;43.03;28.57;;;;;;;;;;4361207;32;319283;-85
2023/11/24 13:07:05;;;;;;;45.37;30.03;;;;;;;;;;4352486;32;332283;-88
2023/11/24 13:09:33;;;;;;;49.07;30.77;;;;;;;;;;4368847;32;319387;-85
2023/11/24 13:12:01;;;;;;;41.57;29.43;;;;;;;;;;4369493;32;319533;-85
2023/11/24 13:14:28;;;;;;;45.20;30.03;;;;;;;;;;4356393;32;321050;-88
2023/11/24 13:16:54;;;;;;;41.23;29.80;;;;;;;;;;4366340;32;335951;-80
2023/11/24 13:19:23;;;;;;;43.70;31.00;;;;;;;;;;4358233;32;318748;-82
2023/11/24 13:21:53;;;;;;;47.10;30.53;;;;;;;;;;4368190;32;319581;-82
2023/11/24 13:24:20;;;;;;;47.83;31.80;;;;;;;;;;4357326;32;319205;-86
2023/11/24 13:26:48;;;;;;;81.67;47.40;;;;;;;;;;4357800;32;318815;-81
2023/11/24 13:29:15;;;;;;;58.27;39.70;;;;;;;;;;4351150;32;319462;-81
2023/11/24 13:31:44;;;;;;;52.43;34.83;;;;;;;;;;4367084;32;319775;-84
2023/11/24 13:34:12;;;;;;;38.27;27.77;;;;;;;;;;4354338;32;319457;-87
2023/11/24 13:36:40;;;;;;;45.13;30.13;;;;;;;;;;4368136;32;351779;-88
2023/11/24 13:39:13;;;;;;;47.53;31.70;;;;;;;;;;4354687;32;353007;-89
2023/11/24 13:41:40;;;;;;;69.87;41.37;;;;;;;;;;4367979;32;319234;-84
2023/11/24 13:44:08;;;;;;;54.63;35.27;;;;;;;;;;4357079;32;319792;-88
2023/11/24 13:46:37;;;;;;;49.93;34.43;;;;;;;;;;4368539;32;319466;-85
2023/11/24 13:49:04;;;;;;;59.50;39.53;;;;;;;;;;4356245;32;319238;-84
2023/11/24 13:51:31;;;;;;;60.83;40.33;;;;;;;;;;4355980;32;319222;-84
2023/11/24 13:54:03;;;;;;;88.93;55.80;;;;;;;;;;4354376;32;319325;-88
2023/11/24 13:56:31;;;;;;;55.43;36.63;;;;;;;;;;4332383;32;418822;-87
2023/11/24 13:58:58;;;;;;;55.60;34.27;;;;;;;;;;4368613;32;319470;-85
2023/11/24 14:01:26;;;;;;;53.17;32.77;;;;;;;;;;4358399;32;319450;-87
2023/11/24 14:03:53;;;;;;;45.20;29.20;;;;;;;;;;4367240;32;321837;-90
2023/11/24 14:06:20;;;;;;;45.03;30.33;;;;;;;;;;4352629;32;319482;-89
2023/11/24 14:08:49;;;;;;;51.60;31.57;;;;;;;;;;4357316;32;319529;-88